Ginys del Meteocat

Dades de l'estació automàtica Vilanova de Segrià

?
?
Resum diari 21:30 TU
Dades diàries de l'estació meteorològica
Temperatura mitjana 6.1 °C
Temperatura màxima 13.6 °C 14:07 TU
Temperatura mínima 0.7 °C 7:39 TU
Humitat relativa mitjana 93%
Precipitació acumulada 0.1 mm
Ratxa màxima del vent (2 m) 12.2 km/h - 206º 14:54 TU
Irradiació solar global 9.4 MJ/m2

El tram horari està expressat en Temps Universal (TU). Cal sumar una hora en horari d'hivern i dues en horari d'estiu per passar a l'hora oficial.

Vilanova de Segrià

Metadades estació meteorol´gica
Municipi Vilanova de Segrià
Comarca Segrià
Altitud 222 m
Data alta 17.09.1997
Estat actual Operativa
Dades de període
Període
TU
TM
°C
TX
°C
TN
°C
HRM
%
PPT
mm
VVM (2 m)
km/h
DVM (2 m)
graus
VVX (2 m)
km/h
RS
W/m2
00:00 - 00:30 3.9 4.0 3.8 100 0.0 1.1 319 3.6 0
00:30 - 01:00 4.1 4.3 3.9 100 0.0 0.7 315 2.9 0
01:00 - 01:30 4.2 4.3 4.1 100 0.0 0.0 0 0.0 0
01:30 - 02:00 4.2 4.5 4.0 100 0.0 1.1 220 4.3 0
02:00 - 02:30 4.1 4.3 3.6 100 0.0 2.2 285 5.8 0
02:30 - 03:00 3.0 3.8 2.3 100 0.0 0.4 273 2.2 0
03:00 - 03:30 2.4 2.6 2.1 100 0.0 0.7 308 2.2 0
03:30 - 04:00 2.1 2.5 1.9 100 0.0 1.4 330 5.4 0
04:00 - 04:30 2.7 3.0 2.1 100 0.0 1.4 314 3.2 0
04:30 - 05:00 2.1 2.8 1.9 100 0.0 0.4 332 3.2 0
05:00 - 05:30 2.5 2.7 2.1 100 0.0 1.1 323 3.2 0
05:30 - 06:00 2.6 2.8 2.4 100 0.0 0.7 315 2.9 0
06:00 - 06:30 1.8 2.4 1.1 100 0.0 0.4 179 4.0 0
06:30 - 07:00 1.6 2.0 0.8 100 0.0 1.1 222 5.4 0
07:00 - 07:30 1.7 1.9 1.4 100 0.0 1.8 222 5.4 3
07:30 - 08:00 1.0 1.7 0.7 100 0.0 0.4 356 3.2 27
08:00 - 08:30 1.6 2.4 1.0 100 0.0 2.9 323 5.0 89
08:30 - 09:00 3.6 4.7 2.6 100 0.0 1.1 319 3.2 212
09:00 - 09:30 5.6 6.4 4.7 100 0.1 0.4 151 2.2 229
09:30 - 10:00 7.1 7.6 6.4 94 0.0 1.8 119 5.4 338
10:00 - 10:30 7.9 8.5 7.2 90 0.0 1.8 127 7.9 391
10:30 - 11:00 8.6 9.2 8.1 85 0.0 2.5 87 7.6 420
11:00 - 11:30 9.0 9.3 8.6 83 0.0 2.2 105 6.1 322
11:30 - 12:00 10.2 11.0 9.4 80 0.0 2.2 147 6.1 540
12:00 - 12:30 11.1 11.8 10.7 75 0.0 2.2 162 6.8 497
12:30 - 13:00 11.8 12.2 11.3 73 0.0 1.4 273 5.0 440
13:00 - 13:30 12.5 13.0 12.0 69 0.0 1.4 253 4.7 410
13:30 - 14:00 12.7 13.2 12.3 66 0.0 1.8 3 5.8 407
14:00 - 14:30 13.1 13.6 12.8 63 0.0 2.2 256 6.1 338
14:30 - 15:00 13.1 13.5 12.3 69 0.0 4.3 204 12.2 297
15:00 - 15:30 11.5 12.3 11.0 84 0.0 5.0 210 10.1 149
15:30 - 16:00 10.5 10.9 10.0 88 0.0 4.7 207 8.3 74
16:00 - 16:30 9.9 10.0 9.6 91 0.0 4.0 208 7.9 69
16:30 - 17:00 8.9 9.5 8.5 96 0.0 1.1 152 2.9 15
17:00 - 17:30 7.9 8.6 7.0 99 0.0 0.4 147 2.5 0
17:30 - 18:00 6.2 6.8 5.7 100 0.0 0.4 233 2.2 0
18:00 - 18:30 5.4 5.9 5.0 100 0.0 0.4 239 1.8 0
18:30 - 19:00 4.7 5.1 4.5 100 0.0 0.0 316 1.4 0
19:00 - 19:30 4.4 5.0 4.0 100 0.0 0.4 300 1.8 0
19:30 - 20:00 4.9 5.3 4.6 100 0.0 1.8 323 5.4 0
20:00 - 20:30 5.5 6.1 4.8 100 0.0 3.2 323 5.8 0
20:30 - 21:00 6.0 6.2 5.7 100 0.0 0.7 328 4.0 0
21:00 - 21:30 5.5 5.7 5.2 100 0.0 0.4 139 2.2 0
21:30 - 22:00 5.5 5.6 5.3 100 0.0 0.4 319 2.2 0

Les dades en taronja només han passat un control de qualitat automàtic. Resta pendent la seva validació definitiva.